Araon — DSQL7 — position and weather

sailwx.info

Track history (hours):
 
Tides and Currents Weather Stations Pressure Air Temp Water Temp Dewpoint Dewpoint Depression Visibility Wind Speed Wind Dir Waves Ship Positions

Oceanographic research ship Araon (Korea)

Ship's website: http://www.kopri.re.kr/index.jsp

Last reported at 2017-Dec-15 16:30 UTC. Time now 2017-Dec-16 22:25 UTC.
Position S 44°55' E 172°54'.

Length 111 m; draft 7.1 m.

Type: Other ship. MMSI: 441619000.

Date/timePositionNaut miles runAvg speedWind from/ knotsBaromVisibWave heightAir tempDewpointWater temp
2017-Dec-15 16:30S 44°55' E 172°54'2712.7
2017-Dec-15 14:22S 45°22' E 172°47'412.8
2017-Dec-15 14:00S 45°26' E 172°46'3213.0
2017-Dec-15 11:33S 45°58' E 172°39'112.9
2017-Dec-15 11:31S 45°58' E 172°38'612.8
2017-Dec-15 11:00S 46°05' E 172°37'612.7
2017-Dec-15 10:30S 46°11' E 172°36'712.9
2017-Dec-15 10:00S 46°18' E 172°34'712.8
2017-Dec-15 09:26S 46°25' E 172°32'612.5
2017-Dec-15 09:00S 46°30' E 172°31'912.3
2017-Dec-15 08:14S 46°39' E 172°28'312.3
2017-Dec-15 07:59S 46°42' E 172°28'1612.3
2017-Dec-15 06:40S 46°58' E 172°24'1412.5
2017-Dec-15 05:33S 47°12' E 172°21'112.5
2017-Dec-15 05:30S 47°13' E 172°21'  
Track history (hours):
 
Tides and Currents Weather Stations Pressure Air Temp Water Temp Dewpoint Dewpoint Depression Visibility Wind Speed Wind Dir Waves Ship Positions

Oceanographic research ship Araon (Korea)

Ship's website: http://www.kopri.re.kr/index.jsp

Last reported at 2017-Dec-15 16:30 UTC. Time now 2017-Dec-16 22:25 UTC.
Position S 44°55' E 172°54'.

Length 111 m; draft 7.1 m.

Type: Other ship. MMSI: 441619000.

Date/timePositionNaut miles runAvg speedWind from/ knotsBaromVisibWave heightAir tempDewpointWater temp
2017-Dec-15 16:30S 44°55' E 172°54'2712.7
2017-Dec-15 14:22S 45°22' E 172°47'412.8
2017-Dec-15 14:00S 45°26' E 172°46'3213.0
2017-Dec-15 11:33S 45°58' E 172°39'112.9
2017-Dec-15 11:31S 45°58' E 172°38'612.8
2017-Dec-15 11:00S 46°05' E 172°37'612.7
2017-Dec-15 10:30S 46°11' E 172°36'712.9
2017-Dec-15 10:00S 46°18' E 172°34'712.8
2017-Dec-15 09:26S 46°25' E 172°32'612.5
2017-Dec-15 09:00S 46°30' E 172°31'912.3
2017-Dec-15 08:14S 46°39' E 172°28'312.3
2017-Dec-15 07:59S 46°42' E 172°28'1612.3
2017-Dec-15 06:40S 46°58' E 172°24'1412.5
2017-Dec-15 05:33S 47°12' E 172°21'112.5
2017-Dec-15 05:30S 47°13' E 172°21'  

Dump ship's entire track history